createdAt,value
2023-02-24T00:00:53.556Z,30.10
2023-02-24T00:02:01.748Z,31.20
2023-02-24T00:03:11.930Z,30.03
2023-02-24T00:04:14.228Z,30.40
2023-02-24T00:05:16.525Z,28.87
2023-02-24T00:06:20.320Z,29.30
2023-02-24T00:07:22.578Z,28.57
2023-02-24T00:08:25.871Z,29.10
2023-02-24T00:09:30.429Z,27.73
2023-02-24T00:10:33.226Z,29.70
2023-02-24T00:11:38.067Z,28.43
2023-02-24T00:12:40.294Z,28.17
2023-02-24T00:13:49.163Z,29.00
2023-02-24T00:14:51.345Z,28.77
2023-02-24T00:16:05.111Z,28.60
2023-02-24T00:17:08.489Z,27.90
2023-02-24T00:18:12.352Z,28.30
2023-02-24T00:19:17.467Z,27.90
2023-02-24T00:20:19.863Z,28.43
2023-02-24T00:21:22.862Z,27.33
2023-02-24T00:22:25.248Z,28.53
2023-02-24T00:23:27.448Z,28.27
2023-02-24T00:24:30.262Z,28.27
2023-02-24T00:25:32.910Z,28.30
2023-02-24T00:26:36.535Z,27.90
2023-02-24T00:27:38.798Z,27.07
2023-02-24T00:28:42.936Z,28.00
2023-02-24T00:29:46.011Z,27.00
2023-02-24T00:30:48.801Z,27.57
2023-02-24T00:31:59.491Z,27.43
2023-02-24T00:33:02.657Z,27.13
2023-02-24T00:34:07.215Z,26.60
2023-02-24T00:35:09.834Z,27.00
2023-02-24T00:36:23.998Z,26.83
2023-02-24T00:37:26.267Z,26.40
2023-02-24T00:38:31.974Z,25.67
2023-02-24T00:39:35.846Z,24.77
2023-02-24T00:40:41.057Z,25.57
2023-02-24T00:41:44.737Z,25.10
2023-02-24T00:42:48.680Z,24.63
2023-02-24T00:43:51.170Z,24.77
2023-02-24T00:44:54.286Z,24.30
2023-02-24T00:46:02.781Z,23.33
2023-02-24T00:47:07.578Z,23.93
2023-02-24T00:48:10.868Z,23.53
2023-02-24T00:49:20.942Z,24.07
2023-02-24T00:50:26.284Z,23.70
2023-02-24T00:51:28.598Z,23.47
2023-02-24T00:52:30.854Z,23.30
2023-02-24T00:53:34.350Z,22.83
2023-02-24T00:54:36.937Z,22.80
2023-02-24T00:55:39.152Z,23.03
2023-02-24T00:56:45.835Z,23.93
2023-02-24T00:57:50.943Z,22.60
2023-02-24T00:58:54.518Z,21.93
2023-02-24T01:00:00.911Z,22.30
2023-02-24T01:01:14.410Z,21.80
2023-02-24T01:02:16.744Z,21.63
2023-02-24T01:03:20.050Z,21.97
2023-02-24T01:04:22.943Z,21.93
2023-02-24T01:05:28.546Z,20.67
2023-02-24T01:06:30.775Z,20.93
2023-02-24T01:07:33.191Z,21.10
2023-02-24T01:08:38.758Z,21.43
2023-02-24T01:09:42.280Z,20.00
2023-02-24T01:11:04.550Z,19.33
2023-02-24T01:12:32.327Z,20.83
2023-02-24T01:13:34.489Z,19.70
2023-02-24T01:14:36.815Z,19.50
2023-02-24T01:15:40.167Z,19.83
2023-02-24T01:16:44.928Z,19.67
2023-02-24T01:17:47.844Z,18.93
2023-02-24T01:18:50.377Z,18.70
2023-02-24T01:19:52.942Z,19.03
2023-02-24T01:20:55.098Z,18.73
2023-02-24T01:21:58.579Z,19.43
2023-02-24T01:23:03.503Z,18.70
2023-02-24T01:24:07.467Z,19.13
2023-02-24T01:25:11.346Z,19.23
2023-02-24T01:26:16.324Z,18.53
2023-02-24T01:27:19.502Z,18.13
2023-02-24T01:28:22.892Z,18.23
2023-02-24T01:29:29.048Z,17.50
2023-02-24T01:30:31.530Z,17.37
2023-02-24T01:31:34.248Z,17.00
2023-02-24T01:32:37.287Z,17.70
2023-02-24T01:33:45.930Z,16.53
2023-02-24T01:34:51.902Z,17.10
2023-02-24T01:35:56.247Z,16.13
2023-02-24T01:36:58.562Z,15.53
2023-02-24T01:38:01.926Z,15.53
2023-02-24T01:39:06.005Z,15.57
2023-02-24T01:40:12.091Z,16.13
2023-02-24T01:41:27.771Z,15.47
2023-02-24T01:42:30.077Z,15.07
2023-02-24T01:43:33.778Z,14.57
2023-02-24T01:44:36.015Z,14.47
2023-02-24T01:45:40.276Z,15.13
2023-02-24T01:46:44.827Z,14.30
2023-02-24T01:47:48.113Z,13.80
2023-02-24T01:48:56.361Z,14.20
2023-02-24T01:49:59.949Z,14.40
2023-02-24T01:51:03.249Z,14.97
2023-02-24T01:52:09.037Z,14.03
2023-02-24T01:53:11.957Z,14.13
2023-02-24T01:54:16.685Z,13.90
2023-02-24T01:55:29.267Z,13.40
2023-02-24T01:56:32.953Z,13.10
2023-02-24T01:57:38.828Z,14.00
2023-02-24T01:58:41.129Z,13.47
2023-02-24T01:59:46.088Z,13.27
2023-02-24T02:00:50.169Z,12.60
2023-02-24T02:01:58.667Z,12.30
2023-02-24T02:03:25.591Z,12.87
2023-02-24T02:04:39.893Z,12.37
2023-02-24T02:05:43.125Z,12.60
2023-02-24T02:06:49.274Z,12.80
2023-02-24T02:07:51.972Z,12.73
2023-02-24T02:08:54.838Z,12.60
2023-02-24T02:10:00.475Z,12.73
2023-02-24T02:11:07.481Z,12.43
2023-02-24T02:12:11.562Z,12.33
2023-02-24T02:13:23.228Z,12.57
2023-02-24T02:14:31.098Z,12.03
2023-02-24T02:15:43.282Z,12.70
2023-02-24T02:17:06.850Z,11.47
2023-02-24T02:18:32.265Z,11.70
2023-02-24T02:20:08.071Z,11.83
2023-02-24T02:21:23.230Z,10.93
2023-02-24T02:22:26.758Z,12.07
2023-02-24T02:23:54.277Z,11.73
2023-02-24T02:25:31.516Z,11.43
2023-02-24T02:27:09.311Z,10.90
2023-02-24T02:28:23.078Z,11.77
2023-02-24T02:29:43.349Z,10.77
2023-02-24T02:31:04.498Z,11.43
2023-02-24T02:32:10.633Z,10.67
2023-02-24T02:33:40.780Z,11.00
2023-02-24T02:35:02.379Z,10.77
2023-02-24T02:36:36.200Z,10.67
2023-02-24T02:38:08.360Z,9.93
2023-02-24T02:39:12.163Z,10.40
2023-02-24T02:40:27.178Z,10.20
2023-02-24T02:41:36.412Z,10.10
2023-02-24T02:42:47.412Z,10.33
2023-02-24T02:43:57.183Z,10.77
2023-02-24T02:45:10.869Z,10.40
2023-02-24T02:46:34.883Z,10.53
2023-02-24T02:47:50.663Z,10.63
2023-02-24T02:48:59.580Z,11.13
2023-02-24T02:50:24.880Z,10.50
2023-02-24T02:51:34.119Z,10.40
2023-02-24T02:52:43.070Z,9.43
2023-02-24T02:54:08.136Z,9.27
2023-02-24T02:55:14.992Z,9.20
2023-02-24T02:56:22.769Z,9.07
2023-02-24T02:57:29.178Z,9.30
2023-02-24T02:58:36.408Z,8.73
2023-02-24T02:59:49.396Z,9.17
2023-02-24T03:01:01.988Z,8.93
2023-02-24T03:02:16.187Z,8.90
2023-02-24T03:03:19.702Z,8.70
2023-02-24T03:04:25.517Z,9.07
2023-02-24T03:05:37.347Z,9.33
2023-02-24T03:06:44.987Z,8.60
2023-02-24T03:07:53.420Z,9.13
2023-02-24T03:09:12.420Z,8.77
2023-02-24T03:10:24.227Z,8.73
2023-02-24T03:11:27.116Z,8.73
2023-02-24T03:12:32.999Z,9.37
2023-02-24T03:13:41.269Z,8.53
2023-02-24T03:14:53.009Z,8.57
2023-02-24T03:15:57.218Z,8.57
2023-02-24T03:17:00.572Z,9.20
2023-02-24T03:18:10.642Z,9.10
2023-02-24T03:19:21.307Z,9.40
2023-02-24T03:20:32.855Z,9.63
2023-02-24T03:21:40.981Z,9.23
2023-02-24T03:22:51.786Z,9.67
2023-02-24T03:23:57.189Z,8.97
2023-02-24T03:25:10.735Z,9.50
2023-02-24T03:26:24.896Z,9.60
2023-02-24T03:27:53.459Z,9.67
2023-02-24T03:29:01.567Z,8.57
2023-02-24T03:30:18.063Z,9.57
2023-02-24T03:31:28.169Z,9.40
2023-02-24T03:32:51.600Z,9.77
2023-02-24T03:34:08.424Z,9.47
2023-02-24T03:35:19.285Z,9.33
2023-02-24T03:36:21.824Z,9.53
2023-02-24T03:37:28.233Z,9.57
2023-02-24T03:38:34.103Z,9.80
2023-02-24T03:39:36.794Z,9.67
2023-02-24T03:40:54.076Z,9.00
2023-02-24T03:42:08.858Z,9.20
2023-02-24T03:43:26.159Z,10.20
2023-02-24T03:44:30.057Z,10.00
2023-02-24T03:45:38.190Z,9.90
2023-02-24T03:46:42.781Z,9.80
2023-02-24T03:47:48.185Z,9.83
2023-02-24T03:48:57.334Z,9.77
2023-02-24T03:49:59.665Z,9.53
2023-02-24T03:51:04.568Z,9.90
2023-02-24T03:52:54.911Z,9.60
2023-02-24T03:54:13.486Z,8.90
2023-02-24T03:55:58.978Z,8.97
2023-02-24T03:57:37.730Z,8.40
2023-02-24T03:59:07.638Z,9.30
2023-02-24T04:00:22.921Z,8.77
2023-02-24T04:01:43.389Z,9.03
2023-02-24T04:02:52.962Z,9.17
2023-02-24T04:04:08.590Z,8.57
2023-02-24T04:05:27.680Z,9.07
2023-02-24T04:06:58.167Z,8.63
2023-02-24T04:08:12.467Z,8.17
2023-02-24T04:09:30.008Z,8.87
2023-02-24T04:11:14.385Z,8.57
2023-02-24T04:12:48.166Z,8.60
2023-02-24T04:13:59.427Z,8.60
2023-02-24T04:15:17.372Z,8.33
2023-02-24T04:16:29.839Z,8.27
2023-02-24T04:17:57.720Z,8.47
2023-02-24T04:19:09.872Z,8.50
2023-02-24T04:20:16.674Z,8.77
2023-02-24T04:21:31.391Z,8.83
2023-02-24T04:22:36.331Z,9.10
2023-02-24T04:23:44.786Z,9.03
2023-02-24T04:24:51.196Z,9.43
2023-02-24T04:25:57.246Z,9.00
2023-02-24T04:27:04.250Z,8.80
2023-02-24T04:28:12.389Z,8.93
2023-02-24T04:29:24.083Z,8.70
2023-02-24T04:30:30.890Z,8.80
2023-02-24T04:31:35.170Z,8.57
2023-02-24T04:32:39.211Z,8.77
2023-02-24T04:33:42.064Z,8.73
2023-02-24T04:34:45.659Z,9.43
2023-02-24T04:35:50.649Z,8.87
2023-02-24T04:36:54.144Z,9.27
2023-02-24T04:37:57.349Z,8.93
2023-02-24T04:39:00.418Z,9.30
2023-02-24T04:40:10.764Z,9.27
2023-02-24T04:41:21.536Z,9.40
2023-02-24T04:42:24.023Z,9.57
2023-02-24T04:43:26.178Z,9.80
2023-02-24T04:44:29.301Z,9.40
2023-02-24T04:45:32.020Z,9.13
2023-02-24T04:46:34.300Z,9.00
2023-02-24T04:47:37.820Z,9.07
2023-02-24T04:48:40.039Z,9.60
2023-02-24T04:49:42.262Z,9.27
2023-02-24T04:50:44.650Z,10.00
2023-02-24T04:51:47.052Z,9.83
2023-02-24T04:52:54.590Z,9.67
2023-02-24T04:53:57.943Z,9.20
2023-02-24T04:55:00.143Z,9.60
2023-02-24T04:56:08.353Z,9.80
2023-02-24T04:57:10.691Z,9.67
2023-02-24T04:58:19.481Z,9.57
2023-02-24T04:59:22.791Z,9.10
2023-02-24T05:00:26.805Z,9.50
2023-02-24T05:01:29.463Z,9.87
2023-02-24T05:02:31.771Z,9.43
2023-02-24T05:03:35.882Z,10.20
2023-02-24T05:04:39.134Z,9.50
2023-02-24T05:05:52.148Z,9.47
2023-02-24T05:06:57.552Z,9.57
2023-02-24T05:08:03.212Z,9.87
2023-02-24T05:09:14.475Z,9.70
2023-02-24T05:10:18.964Z,10.60
2023-02-24T05:11:21.394Z,9.43
2023-02-24T05:12:23.717Z,9.87
2023-02-24T05:13:28.730Z,9.80
2023-02-24T05:14:31.233Z,9.33
2023-02-24T05:15:33.564Z,9.40
2023-02-24T05:16:36.298Z,9.80
2023-02-24T05:17:39.954Z,8.73
2023-02-24T05:18:44.869Z,9.90
2023-02-24T05:20:05.462Z,9.40
2023-02-24T05:21:29.025Z,8.43
2023-02-24T05:22:31.302Z,7.80
2023-02-24T05:23:36.238Z,8.03
2023-02-24T05:24:39.050Z,7.10
2023-02-24T05:25:43.184Z,6.33
2023-02-24T05:26:45.409Z,6.50
2023-02-24T05:27:47.783Z,6.17
2023-02-24T05:28:52.364Z,5.60
2023-02-24T05:29:55.935Z,5.40
2023-02-24T05:31:29.172Z,5.37
2023-02-24T05:32:34.715Z,5.17
2023-02-24T05:33:38.348Z,5.10
2023-02-24T05:34:40.631Z,4.60
2023-02-24T05:35:42.947Z,5.60
2023-02-24T05:36:46.148Z,5.63
2023-02-24T05:37:48.366Z,5.40
2023-02-24T05:38:58.023Z,5.20
2023-02-24T05:40:00.493Z,5.10
2023-02-24T05:41:15.150Z,5.33
2023-02-24T05:42:17.451Z,5.53
2023-02-24T05:43:19.681Z,5.80
2023-02-24T05:44:24.066Z,5.50
2023-02-24T05:45:30.536Z,5.37
2023-02-24T05:46:40.177Z,5.07
2023-02-24T05:47:46.577Z,5.60
2023-02-24T05:48:51.762Z,5.17
2023-02-24T05:49:56.939Z,5.10
2023-02-24T05:50:59.924Z,4.43
2023-02-24T05:52:09.205Z,4.47
2023-02-24T05:53:11.850Z,4.70
2023-02-24T05:54:14.977Z,4.00
2023-02-24T05:55:17.256Z,4.43
2023-02-24T05:56:19.601Z,4.37
2023-02-24T05:57:27.550Z,3.30
2023-02-24T05:58:29.818Z,3.10
2023-02-24T05:59:35.485Z,2.67
2023-02-24T06:00:40.055Z,2.70
2023-02-24T06:01:42.349Z,2.77
2023-02-24T06:02:50.020Z,2.53
2023-02-24T06:03:54.534Z,2.50
2023-02-24T06:04:59.013Z,2.30
2023-02-24T06:06:05.999Z,2.30
2023-02-24T06:07:24.955Z,2.70
2023-02-24T06:08:27.320Z,2.00
2023-02-24T06:09:29.533Z,2.57
2023-02-24T06:10:36.455Z,2.40
2023-02-24T06:11:43.038Z,2.33
2023-02-24T06:12:45.588Z,2.30
2023-02-24T06:13:48.095Z,2.40
2023-02-24T06:14:50.479Z,2.40
2023-02-24T06:16:02.147Z,2.30
2023-02-24T06:17:04.685Z,2.50
2023-02-24T06:18:09.941Z,2.17
2023-02-24T06:19:13.177Z,2.27
2023-02-24T06:20:15.908Z,2.20
2023-02-24T06:21:19.972Z,2.60
2023-02-24T06:22:27.621Z,2.40
2023-02-24T06:23:30.241Z,2.50
2023-02-24T06:24:33.563Z,2.20
2023-02-24T06:25:38.681Z,2.60
2023-02-24T06:26:43.505Z,2.50
2023-02-24T06:27:45.675Z,2.23
2023-02-24T06:28:48.751Z,2.90
2023-02-24T06:29:54.197Z,2.40
2023-02-24T06:30:56.959Z,2.40
2023-02-24T06:31:59.346Z,2.47
2023-02-24T06:33:01.730Z,2.63
2023-02-24T06:34:04.043Z,2.37
2023-02-24T06:35:06.423Z,2.60
2023-02-24T06:36:09.004Z,2.50
2023-02-24T06:37:13.998Z,2.80
2023-02-24T06:38:17.733Z,2.50
2023-02-24T06:39:22.093Z,2.57
2023-02-24T06:40:24.709Z,2.63
2023-02-24T06:41:29.632Z,2.60
2023-02-24T06:42:31.812Z,2.70
2023-02-24T06:43:34.160Z,2.70
2023-02-24T06:44:38.539Z,2.93
2023-02-24T06:45:41.133Z,2.73
2023-02-24T06:46:43.521Z,2.90
2023-02-24T06:47:48.987Z,2.93
2023-02-24T06:48:51.168Z,3.13
2023-02-24T06:49:53.718Z,2.70
2023-02-24T06:50:57.020Z,2.90
2023-02-24T06:52:00.226Z,2.70
2023-02-24T06:53:02.844Z,3.07
2023-02-24T06:54:06.690Z,2.90
2023-02-24T06:55:25.739Z,2.67
2023-02-24T06:56:28.032Z,2.83
2023-02-24T06:57:34.505Z,2.73
2023-02-24T06:58:39.226Z,2.63
2023-02-24T06:59:42.448Z,2.80
2023-02-24T07:01:07.194Z,3.10
2023-02-24T07:02:10.557Z,2.80
2023-02-24T07:03:17.318Z,3.20
2023-02-24T07:04:20.737Z,3.10
2023-02-24T07:05:24.312Z,2.73
2023-02-24T07:06:28.744Z,3.33
2023-02-24T07:07:31.499Z,2.83
2023-02-24T07:08:33.649Z,3.13
2023-02-24T07:09:35.972Z,2.87
2023-02-24T07:10:39.175Z,2.70
2023-02-24T07:11:46.872Z,2.70
2023-02-24T07:12:51.192Z,2.60
2023-02-24T07:13:54.646Z,2.80
2023-02-24T07:14:56.846Z,2.80
2023-02-24T07:16:08.388Z,2.00
2023-02-24T07:17:10.541Z,2.00
2023-02-24T07:18:14.972Z,2.40
2023-02-24T07:19:17.758Z,2.80
2023-02-24T07:20:25.634Z,2.40
2023-02-24T07:21:30.320Z,2.50
2023-02-24T07:22:32.479Z,2.40
2023-02-24T07:23:35.029Z,2.70
2023-02-24T07:24:39.496Z,2.40
2023-02-24T07:25:46.470Z,2.67
2023-02-24T07:26:51.918Z,2.57
2023-02-24T07:27:54.188Z,2.67
2023-02-24T07:28:56.849Z,2.43
2023-02-24T07:29:59.393Z,2.50
2023-02-24T07:31:08.617Z,2.60
2023-02-24T07:32:11.997Z,2.90
2023-02-24T07:33:14.489Z,2.70
2023-02-24T07:34:23.565Z,2.50
2023-02-24T07:35:28.408Z,2.57
2023-02-24T07:36:31.086Z,2.50
2023-02-24T07:37:34.962Z,2.20
2023-02-24T07:38:40.045Z,2.23
2023-02-24T07:39:43.247Z,2.40
2023-02-24T07:40:47.360Z,2.40
2023-02-24T07:41:51.464Z,2.60
2023-02-24T07:42:54.425Z,2.10
2023-02-24T07:44:01.526Z,2.27
2023-02-24T07:45:04.889Z,2.70
2023-02-24T07:46:13.189Z,2.53
2023-02-24T07:47:16.225Z,2.20
2023-02-24T07:48:18.619Z,2.47
2023-02-24T07:49:23.850Z,2.50
2023-02-24T07:50:28.592Z,2.20
2023-02-24T07:51:31.912Z,2.40
2023-02-24T07:52:34.170Z,2.57
2023-02-24T07:53:36.805Z,2.37
2023-02-24T07:54:39.544Z,2.30
2023-02-24T07:55:42.049Z,2.33
2023-02-24T07:56:48.933Z,2.10
2023-02-24T07:57:51.887Z,2.63
2023-02-24T07:59:02.075Z,2.70
2023-02-24T08:00:28.320Z,2.53
2023-02-24T08:01:39.027Z,2.90
2023-02-24T08:02:41.383Z,2.73
2023-02-24T08:03:44.756Z,2.23
2023-02-24T08:04:50.491Z,2.70
2023-02-24T08:06:13.856Z,2.37
2023-02-24T08:07:17.172Z,2.40
2023-02-24T08:08:21.131Z,2.13
2023-02-24T08:09:44.850Z,2.33
2023-02-24T08:10:47.496Z,2.23
2023-02-24T08:11:54.850Z,2.57
2023-02-24T08:12:57.490Z,2.50
2023-02-24T08:14:03.118Z,2.20
2023-02-24T08:15:17.408Z,2.27
2023-02-24T08:16:20.141Z,2.27
2023-02-24T08:17:26.696Z,2.30
2023-02-24T08:18:29.743Z,2.47
2023-02-24T08:19:33.676Z,2.40
2023-02-24T08:20:54.218Z,2.57
2023-02-24T08:22:00.298Z,2.60
2023-02-24T08:23:06.612Z,2.40
2023-02-24T08:24:18.789Z,2.80
2023-02-24T08:25:24.930Z,2.50
2023-02-24T08:26:30.844Z,1.90
2023-02-24T08:27:39.185Z,2.33
2023-02-24T08:28:41.932Z,2.50
2023-02-24T08:30:00.092Z,2.37
2023-02-24T08:31:05.093Z,2.27
2023-02-24T08:32:10.859Z,2.33
2023-02-24T08:33:19.507Z,2.47
2023-02-24T08:34:21.729Z,2.30
2023-02-24T08:35:32.000Z,2.37
2023-02-24T08:36:35.543Z,2.27
2023-02-24T08:37:40.412Z,2.83
2023-02-24T08:38:44.971Z,2.27
2023-02-24T08:39:47.134Z,2.40
2023-02-24T08:40:51.684Z,2.53
2023-02-24T08:41:55.037Z,2.37
2023-02-24T08:43:17.521Z,2.40
2023-02-24T08:44:20.521Z,2.20
2023-02-24T08:45:22.700Z,2.30
2023-02-24T08:46:37.126Z,2.60
2023-02-24T08:47:39.302Z,2.47
2023-02-24T08:48:48.431Z,2.60
2023-02-24T08:49:53.929Z,3.00
2023-02-24T08:50:57.581Z,2.57
2023-02-24T08:52:02.472Z,2.67
2023-02-24T08:53:05.018Z,2.50
2023-02-24T08:54:11.683Z,2.40
2023-02-24T08:55:13.970Z,2.70
2023-02-24T08:56:24.357Z,2.60
2023-02-24T08:57:27.192Z,2.27
2023-02-24T08:58:31.344Z,2.50
2023-02-24T08:59:40.390Z,2.20
2023-02-24T09:00:53.727Z,2.53
2023-02-24T09:02:17.863Z,2.57
2023-02-24T09:03:28.219Z,1.80
2023-02-24T09:04:30.595Z,2.07
2023-02-24T09:05:33.856Z,2.57
2023-02-24T09:06:46.421Z,2.40
2023-02-24T09:07:54.868Z,2.30
2023-02-24T09:09:16.008Z,2.00
2023-02-24T09:10:19.295Z,2.20
2023-02-24T09:11:23.172Z,2.10
2023-02-24T09:12:29.292Z,2.40
2023-02-24T09:13:34.702Z,2.30
2023-02-24T09:14:37.609Z,2.37
2023-02-24T09:15:41.920Z,2.10
2023-02-24T09:17:02.233Z,2.37
2023-02-24T09:18:07.684Z,2.50
2023-02-24T09:19:35.574Z,2.40
2023-02-24T09:20:56.315Z,2.40
2023-02-24T09:22:21.201Z,2.37
2023-02-24T09:23:30.143Z,2.30
2023-02-24T09:24:33.011Z,2.57
2023-02-24T09:25:41.275Z,2.30
2023-02-24T09:26:43.735Z,2.63
2023-02-24T09:28:08.329Z,2.60
2023-02-24T09:29:31.624Z,2.10
2023-02-24T09:30:37.330Z,2.20
2023-02-24T09:31:55.604Z,2.20
2023-02-24T09:33:01.536Z,2.27
2023-02-24T09:34:04.513Z,2.00
2023-02-24T09:35:06.995Z,1.90
2023-02-24T09:36:20.523Z,2.00
2023-02-24T09:37:25.483Z,2.17
2023-02-24T09:38:47.655Z,2.17
2023-02-24T09:39:55.952Z,1.87
2023-02-24T09:41:18.435Z,1.90
2023-02-24T09:42:23.352Z,1.60
2023-02-24T09:43:30.506Z,2.20
2023-02-24T09:44:36.676Z,2.27
2023-02-24T09:45:41.130Z,1.70
2023-02-24T09:46:54.317Z,2.07
2023-02-24T09:48:01.377Z,2.00
2023-02-24T09:49:17.336Z,1.90
2023-02-24T09:50:40.278Z,1.90
2023-02-24T09:51:44.419Z,2.07
2023-02-24T09:53:02.757Z,1.80
2023-02-24T09:54:15.875Z,1.83
2023-02-24T09:56:05.639Z,2.13
2023-02-24T09:57:17.024Z,2.10
2023-02-24T09:58:41.784Z,2.10
2023-02-24T10:00:23.833Z,2.00
2023-02-24T10:01:36.055Z,2.10
2023-02-24T10:03:00.312Z,2.30
2023-02-24T10:04:18.512Z,2.03
2023-02-24T10:05:38.783Z,2.27
2023-02-24T10:06:51.932Z,2.20
2023-02-24T10:07:57.366Z,2.40
2023-02-24T10:09:19.965Z,2.87
2023-02-24T10:10:30.070Z,2.40
2023-02-24T10:11:35.164Z,2.90
2023-02-24T10:12:40.419Z,2.40
2023-02-24T10:13:49.600Z,2.57
2023-02-24T10:15:20.991Z,2.90
2023-02-24T10:16:24.571Z,2.57
2023-02-24T10:17:40.344Z,3.30
2023-02-24T10:19:16.459Z,3.10
2023-02-24T10:20:40.131Z,3.00
2023-02-24T10:21:49.670Z,2.80
2023-02-24T10:23:00.407Z,2.90
2023-02-24T10:24:15.999Z,2.60
2023-02-24T10:25:54.331Z,2.60
2023-02-24T10:27:08.993Z,2.77
2023-02-24T10:28:43.978Z,2.43
2023-02-24T10:30:11.428Z,2.50
2023-02-24T10:31:27.062Z,2.50
2023-02-24T10:32:48.103Z,2.57
2023-02-24T10:33:56.002Z,2.70
2023-02-24T10:34:58.220Z,2.53
2023-02-24T10:36:10.141Z,2.40
2023-02-24T10:37:27.677Z,2.90
2023-02-24T10:38:30.705Z,2.70
2023-02-24T10:39:33.539Z,2.60
2023-02-24T10:40:47.397Z,3.00
2023-02-24T10:41:59.031Z,3.00
2023-02-24T10:43:10.868Z,2.77
2023-02-24T10:44:22.066Z,3.03
2023-02-24T10:45:27.494Z,2.53
2023-02-24T10:46:42.615Z,2.90
2023-02-24T10:47:57.519Z,2.97
2023-02-24T10:49:02.413Z,2.93
2023-02-24T10:50:12.780Z,2.70
2023-02-24T10:51:20.725Z,2.93
2023-02-24T10:52:45.078Z,3.10
2023-02-24T10:54:14.167Z,3.10
2023-02-24T10:55:53.571Z,3.00
2023-02-24T10:57:00.906Z,3.40
2023-02-24T10:58:07.389Z,3.40
2023-02-24T10:59:24.860Z,3.50
2023-02-24T11:00:51.213Z,3.47
2023-02-24T11:01:59.398Z,3.67
2023-02-24T11:03:08.520Z,4.00
2023-02-24T11:04:34.033Z,3.40
2023-02-24T11:06:04.575Z,4.17
2023-02-24T11:07:12.757Z,3.60
2023-02-24T11:08:36.907Z,3.77
2023-02-24T11:10:04.501Z,4.30
2023-02-24T11:11:25.963Z,3.87
2023-02-24T11:12:46.957Z,4.37
2023-02-24T11:14:09.658Z,4.10
2023-02-24T11:15:47.250Z,4.50
2023-02-24T11:17:11.768Z,4.30
2023-02-24T11:18:21.078Z,4.47
2023-02-24T11:19:23.321Z,4.77
2023-02-24T11:20:49.557Z,4.50
2023-02-24T11:21:58.338Z,4.30
2023-02-24T11:23:03.925Z,4.57
2023-02-24T11:24:19.888Z,4.47
2023-02-24T11:25:26.676Z,4.43
2023-02-24T11:26:37.053Z,4.40
2023-02-24T11:27:42.313Z,4.50
2023-02-24T11:29:17.934Z,4.33
2023-02-24T11:30:35.921Z,4.57
2023-02-24T11:32:12.742Z,3.90
2023-02-24T11:33:32.055Z,4.30
2023-02-24T11:34:34.210Z,4.50
2023-02-24T11:36:17.833Z,4.10
2023-02-24T11:37:34.693Z,4.57
2023-02-24T11:38:45.887Z,3.93
2023-02-24T11:39:56.266Z,4.07
2023-02-24T11:41:27.732Z,4.30
2023-02-24T11:42:53.339Z,4.27
2023-02-24T11:44:07.227Z,4.03
2023-02-24T11:45:27.560Z,4.10
2023-02-24T11:46:41.876Z,3.90
2023-02-24T11:47:55.482Z,3.93
2023-02-24T11:49:02.011Z,4.33
2023-02-24T11:50:34.200Z,3.90
2023-02-24T11:51:38.105Z,4.00
2023-02-24T11:52:47.026Z,3.60
2023-02-24T11:53:57.722Z,3.63
2023-02-24T11:55:03.991Z,3.47
2023-02-24T11:56:27.330Z,3.50
2023-02-24T11:57:42.194Z,3.60
2023-02-24T11:58:53.466Z,3.70
2023-02-24T12:00:13.241Z,3.80
2023-02-24T12:01:37.321Z,4.20
2023-02-24T12:02:52.471Z,3.47
2023-02-24T12:04:19.228Z,3.50
2023-02-24T12:05:27.213Z,3.93
2023-02-24T12:06:37.917Z,3.53
2023-02-24T12:07:44.407Z,3.57
2023-02-24T12:08:54.006Z,4.07
2023-02-24T12:10:17.971Z,4.03
2023-02-24T12:11:39.275Z,4.17
2023-02-24T12:12:54.906Z,4.50
2023-02-24T12:14:12.579Z,4.20
2023-02-24T12:15:25.968Z,4.10
2023-02-24T12:16:38.097Z,4.30
2023-02-24T12:17:58.133Z,3.97
2023-02-24T12:19:06.822Z,4.90
2023-02-24T12:20:24.428Z,4.33
2023-02-24T12:21:31.611Z,4.77
2023-02-24T12:22:46.097Z,4.50
2023-02-24T12:23:53.710Z,4.80
2023-02-24T12:24:57.513Z,5.13
2023-02-24T12:26:24.515Z,5.07
2023-02-24T12:27:46.571Z,4.77
2023-02-24T12:28:57.041Z,5.30
2023-02-24T12:30:06.805Z,4.73
2023-02-24T12:31:32.276Z,5.00
2023-02-24T12:32:53.617Z,4.90
2023-02-24T12:34:13.006Z,5.73
2023-02-24T12:35:19.951Z,5.70
2023-02-24T12:36:44.185Z,5.67
2023-02-24T12:38:06.150Z,5.57
2023-02-24T12:39:16.293Z,5.33
2023-02-24T12:40:31.587Z,5.50
2023-02-24T12:41:42.987Z,4.87
2023-02-24T12:43:13.926Z,5.13
2023-02-24T12:44:35.822Z,5.40
2023-02-24T12:46:01.084Z,5.47
2023-02-24T12:47:57.328Z,4.80
2023-02-24T12:49:13.059Z,5.10
2023-02-24T12:50:40.370Z,4.93
2023-02-24T12:52:02.067Z,4.90
2023-02-24T12:53:31.418Z,4.73
2023-02-24T12:54:39.397Z,5.10
2023-02-24T12:55:52.307Z,5.00
2023-02-24T12:57:18.892Z,4.73
2023-02-24T12:58:26.774Z,4.53
2023-02-24T12:59:34.266Z,4.57
2023-02-24T13:00:51.335Z,4.93
2023-02-24T13:02:04.330Z,4.53
2023-02-24T13:03:39.441Z,5.00
2023-02-24T13:05:10.528Z,4.73
2023-02-24T13:06:34.347Z,4.70
2023-02-24T13:07:52.813Z,5.00
2023-02-24T13:08:56.656Z,5.27
2023-02-24T13:10:30.043Z,4.77
2023-02-24T13:12:01.082Z,5.10
2023-02-24T13:13:10.305Z,5.17
2023-02-24T13:14:30.160Z,4.90
2023-02-24T13:15:32.541Z,4.60
2023-02-24T13:16:36.090Z,5.20
2023-02-24T13:17:48.300Z,4.80
2023-02-24T13:18:50.702Z,4.97
2023-02-24T13:19:56.903Z,5.00
2023-02-24T13:21:10.229Z,4.80
2023-02-24T13:22:12.437Z,5.07
2023-02-24T13:23:22.173Z,4.97
2023-02-24T13:24:26.596Z,4.87
2023-02-24T13:25:37.157Z,5.20
2023-02-24T13:26:39.480Z,5.33
2023-02-24T13:27:45.647Z,5.20
2023-02-24T13:29:02.765Z,5.33
2023-02-24T13:30:08.218Z,5.00
2023-02-24T13:31:13.096Z,4.83
2023-02-24T13:32:33.333Z,5.20
2023-02-24T13:33:39.813Z,5.30
2023-02-24T13:34:45.017Z,5.50
2023-02-24T13:36:04.729Z,4.60
2023-02-24T13:37:09.499Z,4.87
2023-02-24T13:38:30.494Z,5.17
2023-02-24T13:39:40.688Z,5.60
2023-02-24T13:40:43.086Z,4.97
2023-02-24T13:41:47.196Z,5.17
2023-02-24T13:42:58.959Z,5.00
2023-02-24T13:44:19.977Z,5.50
2023-02-24T13:45:22.880Z,4.83
2023-02-24T13:46:28.803Z,5.30
2023-02-24T13:47:40.703Z,5.30
2023-02-24T13:49:01.021Z,5.33
2023-02-24T13:50:21.430Z,5.63
2023-02-24T13:51:49.458Z,5.13
2023-02-24T13:53:23.978Z,5.40
2023-02-24T13:54:53.612Z,5.30
2023-02-24T13:56:05.093Z,5.67
2023-02-24T13:57:51.118Z,5.37
2023-02-24T13:59:08.157Z,5.60
2023-02-24T14:00:22.267Z,5.93
2023-02-24T14:01:29.553Z,5.70
2023-02-24T14:02:42.999Z,5.47
2023-02-24T14:04:14.882Z,5.60
2023-02-24T14:05:31.232Z,5.87
2023-02-24T14:06:33.988Z,5.27
2023-02-24T14:07:38.308Z,5.90
2023-02-24T14:08:45.936Z,5.43
2023-02-24T14:09:55.190Z,5.73
2023-02-24T14:11:00.450Z,5.47
2023-02-24T14:12:26.667Z,5.97
2023-02-24T14:13:34.348Z,6.17
2023-02-24T14:14:37.763Z,5.93
2023-02-24T14:15:42.941Z,6.17
2023-02-24T14:16:49.951Z,5.33
2023-02-24T14:17:57.914Z,5.70
2023-02-24T14:19:04.599Z,5.60
2023-02-24T14:20:06.855Z,5.47
2023-02-24T14:21:21.786Z,5.17
2023-02-24T14:22:24.179Z,5.73
2023-02-24T14:23:34.429Z,5.50
2023-02-24T14:24:36.608Z,5.70
2023-02-24T14:25:39.586Z,5.67
2023-02-24T14:26:54.926Z,5.57
2023-02-24T14:27:57.989Z,5.43
2023-02-24T14:29:01.372Z,5.57
2023-02-24T14:30:04.627Z,5.80
2023-02-24T14:31:12.941Z,5.37
2023-02-24T14:32:25.748Z,5.40
2023-02-24T14:33:31.729Z,5.50
2023-02-24T14:34:34.704Z,5.00
2023-02-24T14:35:42.165Z,4.83
2023-02-24T14:36:45.841Z,5.40
2023-02-24T14:37:48.294Z,5.20
2023-02-24T14:39:20.128Z,5.17
2023-02-24T14:40:25.619Z,5.20
2023-02-24T14:41:27.988Z,4.87
2023-02-24T14:42:30.229Z,5.23
2023-02-24T14:43:32.785Z,5.00
2023-02-24T14:44:46.508Z,4.90
2023-02-24T14:45:51.654Z,5.07
2023-02-24T14:46:56.708Z,4.50
2023-02-24T14:47:58.984Z,4.53
2023-02-24T14:49:01.181Z,4.80
2023-02-24T14:50:04.730Z,5.10
2023-02-24T14:51:15.393Z,4.60
2023-02-24T14:52:39.906Z,4.63
2023-02-24T14:53:55.109Z,4.40
2023-02-24T14:55:10.805Z,4.53
2023-02-24T14:56:14.148Z,4.37
2023-02-24T14:57:21.249Z,4.50
2023-02-24T14:58:42.654Z,4.77
2023-02-24T14:59:49.475Z,4.40
2023-02-24T15:00:58.739Z,4.50
2023-02-24T15:02:03.132Z,4.20
2023-02-24T15:03:17.978Z,4.30
2023-02-24T15:04:42.513Z,4.60
2023-02-24T15:05:52.335Z,4.30
2023-02-24T15:06:54.794Z,4.47
2023-02-24T15:07:58.736Z,4.13
2023-02-24T15:09:06.131Z,4.60
2023-02-24T15:10:23.158Z,4.30
2023-02-24T15:11:29.633Z,4.27
2023-02-24T15:12:35.868Z,4.53
2023-02-24T15:13:42.411Z,5.00
2023-02-24T15:14:51.543Z,4.47
2023-02-24T15:15:53.985Z,4.43
2023-02-24T15:17:03.563Z,4.60
2023-02-24T15:18:19.820Z,4.40
2023-02-24T15:19:47.338Z,4.20
2023-02-24T15:21:01.845Z,4.27
2023-02-24T15:22:18.442Z,4.37
2023-02-24T15:23:33.218Z,4.50
2023-02-24T15:24:35.526Z,4.13
2023-02-24T15:25:46.589Z,4.63
2023-02-24T15:27:01.754Z,4.17